OPA Logo
 

ASOS: KRDM
At:2017.08.17 0256 UTC
Wind:300° @ 12KT
Viz: 10 mile(s)
Sky: clear
Temp: 79.0 F (26.1 C)
DewP: 42.1 F (5.6 C)
RH: 26%
Baro: 30.07 in.
ob: KRDM 170256Z 30012KT 10SM CLR 26/06 A3007 RMK AO2 SLP159 T02610056 53006
Apache-SSL Logo

Valid HTML 4.01!

Central Oregon OPA Chapter

Calendar


Other Calendar pages

Oregon Pilots Association Events Calendar

Washington Pilots Association Events


Web page by: gem@rellim.com